createdAt,value
2023-03-27T00:09:19.879Z,5.31
2023-03-27T00:19:22.569Z,5.27
2023-03-27T00:29:27.853Z,5.18
2023-03-27T00:39:31.321Z,5.20
2023-03-27T00:49:38.207Z,5.00
2023-03-27T00:59:44.580Z,4.94
2023-03-27T01:09:50.636Z,4.68
2023-03-27T01:20:38.381Z,4.63
2023-03-27T01:30:50.740Z,4.49
2023-03-27T01:41:02.499Z,4.44
2023-03-27T01:51:12.991Z,4.56
2023-03-27T02:01:22.469Z,4.47
2023-03-27T02:11:30.849Z,4.55
2023-03-27T02:21:35.337Z,4.37
2023-03-27T02:31:55.586Z,4.28
2023-03-27T02:42:07.028Z,4.25
2023-03-27T02:52:20.048Z,4.14
2023-03-27T03:02:32.516Z,4.04
2023-03-27T03:12:36.267Z,3.93
2023-03-27T03:22:42.174Z,3.99
2023-03-27T03:32:47.366Z,3.89
2023-03-27T03:42:54.353Z,3.67
2023-03-27T03:53:01.970Z,3.62
2023-03-27T04:03:08.922Z,3.66
2023-03-27T04:13:12.784Z,3.83
2023-03-27T04:23:30.400Z,3.75
2023-03-27T04:33:35.237Z,3.61
2023-03-27T04:43:40.302Z,3.30
2023-03-27T04:53:43.616Z,3.28
2023-03-27T05:03:49.422Z,3.42
2023-03-27T05:14:02.913Z,3.45
2023-03-27T05:24:11.030Z,3.35
2023-03-27T05:34:15.244Z,3.25
2023-03-27T05:44:22.379Z,3.34
2023-03-27T05:54:27.000Z,3.31
2023-03-27T06:04:43.418Z,3.86
2023-03-27T06:14:51.478Z,3.61
2023-03-27T06:25:10.170Z,3.95
2023-03-27T06:35:14.871Z,4.23
2023-03-27T06:45:46.196Z,4.39
2023-03-27T06:56:15.903Z,4.55
2023-03-27T07:06:40.375Z,4.39
2023-03-27T07:16:46.945Z,4.40
2023-03-27T07:26:52.152Z,4.61
2023-03-27T07:37:01.086Z,4.54
2023-03-27T07:47:07.071Z,4.60
2023-03-27T07:57:11.568Z,5.10
2023-03-27T08:07:28.061Z,5.41
2023-03-27T08:17:36.183Z,5.83
2023-03-27T08:27:41.172Z,6.09
2023-03-27T08:37:45.067Z,5.56
2023-03-27T08:48:31.817Z,5.46
2023-03-27T08:58:34.799Z,5.90
2023-03-27T09:09:04.018Z,5.76
2023-03-27T09:19:16.139Z,6.53
2023-03-27T09:29:25.535Z,6.10
2023-03-27T09:39:42.511Z,6.50
2023-03-27T09:50:04.917Z,5.58
2023-03-27T10:00:29.486Z,5.61
2023-03-27T10:10:37.934Z,6.48
2023-03-27T10:20:51.120Z,7.56
2023-03-27T10:31:02.033Z,7.66
2023-03-27T10:51:52.839Z,7.04
2023-03-27T11:02:13.960Z,7.36
2023-03-27T11:12:22.442Z,7.96
2023-03-27T11:22:34.944Z,8.20
2023-03-27T11:32:47.953Z,8.97
2023-03-27T11:42:52.301Z,8.57
2023-03-27T11:53:10.781Z,8.84
2023-03-27T12:03:53.116Z,8.40
2023-03-27T12:14:41.276Z,8.88
2023-03-27T12:25:00.902Z,9.32
2023-03-27T12:35:43.133Z,8.09
2023-03-27T12:46:15.968Z,7.29
2023-03-27T12:56:30.441Z,6.24
2023-03-27T13:06:43.583Z,6.25
2023-03-27T13:17:03.956Z,7.93
2023-03-27T13:27:30.710Z,8.76
2023-03-27T13:37:58.315Z,9.39
2023-03-27T13:48:28.381Z,8.87
2023-03-27T13:58:51.334Z,9.07
2023-03-27T14:09:06.114Z,7.50
2023-03-27T14:19:34.787Z,5.89
2023-03-27T14:29:40.223Z,6.38
2023-03-27T14:39:55.062Z,6.91
2023-03-27T14:50:01.935Z,7.16
2023-03-27T15:00:20.247Z,7.75
2023-03-27T15:10:26.946Z,8.04
2023-03-27T15:20:45.342Z,6.94
2023-03-27T15:30:52.842Z,8.15
2023-03-27T15:41:03.602Z,6.79
2023-03-27T15:51:08.981Z,6.81
2023-03-27T16:01:20.019Z,7.16
2023-03-27T16:11:50.994Z,7.01
2023-03-27T16:21:57.501Z,6.71
2023-03-27T16:32:00.567Z,5.41
2023-03-27T16:42:05.458Z,5.50
2023-03-27T16:52:09.012Z,5.92
2023-03-27T17:02:13.856Z,5.83
2023-03-27T17:12:18.004Z,5.91
2023-03-27T17:22:22.208Z,5.92
2023-03-27T17:32:26.002Z,5.71
2023-03-27T17:42:30.562Z,5.56
2023-03-27T17:52:34.030Z,5.67
2023-03-27T18:02:38.942Z,5.44
2023-03-27T18:12:42.888Z,5.48
2023-03-27T18:22:47.328Z,5.55
2023-03-27T18:32:51.009Z,5.31
2023-03-27T18:42:55.738Z,5.26
2023-03-27T18:52:59.021Z,5.24
2023-03-27T19:03:03.442Z,5.20
2023-03-27T19:13:06.758Z,5.24
2023-03-27T19:23:30.038Z,5.87
2023-03-27T19:33:33.546Z,5.19
2023-03-27T19:43:38.726Z,5.05
2023-03-27T19:53:42.282Z,4.96
2023-03-27T20:03:47.245Z,4.77
2023-03-27T20:13:56.591Z,4.74
2023-03-27T20:24:01.681Z,4.68
2023-03-27T20:34:10.671Z,4.58
2023-03-27T20:44:35.132Z,4.55
2023-03-27T20:54:38.652Z,4.46
2023-03-27T21:04:46.503Z,4.48
2023-03-27T21:14:49.746Z,4.23
2023-03-27T21:24:54.139Z,4.17
2023-03-27T21:34:57.292Z,4.24
2023-03-27T21:45:02.415Z,4.13
2023-03-27T21:55:06.223Z,4.11
2023-03-27T22:05:11.194Z,3.85
2023-03-27T22:15:13.950Z,3.71
2023-03-27T22:25:19.659Z,3.78
2023-03-27T22:35:22.539Z,3.55
2023-03-27T22:45:26.933Z,3.73
2023-03-27T22:55:30.000Z,3.57
2023-03-27T23:05:39.377Z,3.05
2023-03-27T23:15:42.426Z,3.27
2023-03-27T23:25:46.845Z,3.20
2023-03-27T23:35:49.915Z,3.33
2023-03-27T23:45:55.465Z,3.35
2023-03-27T23:56:00.317Z,3.13
